Heber, UT

08:03 AM MST am 20. Dezember 2014 (GMT -0700)
Heber | Change Station
CLOSE
Current Station
Flughafen
Location: Heber,
Höhe: 5636 ft
Wetterstationen in der Umgebung
aktive Warnung: Winter Storm Warning

Höhe 5636 ft 40.48 °N, 111.43 °W | Updated 8 minutes ago

Bedeckt
Bedeckt
32 °F
gefühlte 32 °F
N
0
Wind Wechselnd Wind aus Nord

Heute
Max. -- | schwach -- °F
--% Regenrisiko
Gestern
Max. -- | schwach -- °F
Precip. -- inch
7:44 AM 5:01 PM
Letztes Viertel, 3% visible
Druck 30.10 inch
Sichtweite 7.0 Meilen
Wolken Teils Wolkig 100 ft
Wolkig 4000 ft
Bedeckt 4800 ft
Taupunkt 30 °F
Feuchtigkeit 93%
Regen 0.00 inch
Schneehöhe Nicht verfügbar..
UV 0 von 12
Pollen .10 von 12
Luftqualität Nicht verfügbar..
Flu Activity Nicht verfügbar..
METAR K36U 201455Z AUTO 00000KT 7SM SCT001 BKN040 OVC048 00/M01 A3010 RMK AO2

More Conditions Fewer Conditions

Druck 30.10 inch
Sichtweite 7.0 Meilen
Wolken Teils Wolkig 100 ft
Wolkig 4000 ft
Bedeckt 4800 ft
Taupunkt 30 °F
Feuchtigkeit 93%
Regen 0.00 inch
Schneehöhe Nicht verfügbar..
UV 0 von 12
Pollen .10 von 12
Luftqualität Nicht verfügbar..
Flu Activity Nicht verfügbar..
METAR K36U 201455Z AUTO 00000KT 7SM SCT001 BKN040 OVC048 00/M01 A3010 RMK AO2

More Conditions Fewer Conditions

10-Day Weather Forecast

Almanac

Astronomie

Dec. 20, 2014 Aufgang Untergang
Genaue Zeit
Bürgerliche Dämmerung
Nautische Dämmerung
Astronomische Dämmerung
Mond
Länge des sichtbaren Lichts
Tageslänge
Tomorrow will be .
, % of the Moon is Illuminated

Heutige Rekorde

State Highs State Lows

Community

WunderPhotos

Upload Photos

1,779,199 Fotos hochgeladen!

WunderBlogs® & News

Nearby

Luftqualität

  Luftqualität LQ Index Schadstoff
Not available.

Schneehöhe

Station Depth Höhe

Erdbebenaktivität

Stadt Distance Mag. Time & Date
Minimum magnitude displayed is 2.5.

küstennahe Wassertemperaturen

Ort Temperatur

Wetterstationen in der Umgebung